Iberica Hav — C6YI3 — position and weather

sailwx.info

Track history (hours):
 
Tides and Currents Weather Stations Pressure Air Temp Water Temp Dewpoint Dewpoint Depression Visibility Wind Speed Wind Dir Waves Ship Positions

Iberica Hav

Last reported at 2014-Oct-20 13:32 UTC. Time now 2014-Oct-21 00:42 UTC.
Position N 55°31' E 015°06'.

Length 88 m; draft 3.7 m.

Type: Cargo ship. MMSI: 311034400.

Date/timePositionNaut miles runAvg speedWind from/ knotsBaromVisibWave heightAir tempDewpointWater temp
2014-Oct-20 13:32N 55°31' E 015°06'8 8.4
2014-Oct-20 12:34N 55°27' E 014°53'8 8.3
2014-Oct-20 11:34N 55°23' E 014°41'9 8.8
2014-Oct-20 10:34N 55°16' E 014°30'8 8.5
2014-Oct-20 09:34N 55°10' E 014°20'8 8.1
2014-Oct-20 08:34N 55°04' E 014°10'8 8.4
2014-Oct-20 07:34N 55°00' E 013°58'64 8.8
2014-Oct-20 00:15N 54°34' E 012°16'6 9.2
2014-Oct-19 23:33N 54°31' E 012°06'59 9.6
2014-Oct-19 17:28N 54°30' E 010°25'8 9.1
2014-Oct-19 16:33N 54°26' E 010°13'5 4.6
2014-Oct-19 15:33N 54°22' E 010°09'5 5.5
2014-Oct-19 14:34N 54°21' E 009°59'8 7.8
2014-Oct-19 13:33N 54°21' E 009°46'8 7.8
2014-Oct-19 12:33N 54°15' E 009°37'21 6.3
2014-Oct-19 09:15N 53°58' E 009°16'6 8.3
2014-Oct-19 08:33N 53°54' E 009°09'6 5.5
2014-Oct-19 07:31N 53°51' E 009°01'1010.8
2014-Oct-19 06:34N 53°52' E 008°44'1010.1
2014-Oct-19 05:33N 53°58' E 008°30'1010.5
2014-Oct-19 04:33N 53°59' E 008°12'9 9.5
2014-Oct-19 03:33N 53°57' E 007°57'71 8.3
2014-Oct-18 19:03N 53°39' E 006°01'4 8.8
2014-Oct-18 18:33N 53°38' E 005°54'9 8.9
2014-Oct-18 17:33N 53°35' E 005°39'9 9.0
2014-Oct-18 16:33N 53°33' E 005°25'9 9.3
2014-Oct-18 15:33N 53°30' E 005°10'10 9.9
2014-Oct-18 14:34N 53°26' E 004°55'10 9.7
2014-Oct-18 13:32N 53°20' E 004°41'57 9.4
2014-Oct-18 07:28N 52°31' E 003°55'55 7.6
2014-Oct-18 00:09N 51°40' E 003°20'710.1
2014-Oct-17 23:26N 51°33' E 003°25'910.2
2014-Oct-17 22:33N 51°26' E 003°34'1010.3
2014-Oct-17 21:34N 51°21' E 003°48'3 3.3
2014-Oct-17 20:34N 51°18' E 003°50'5 4.3
2014-Oct-17 19:26N 51°13' E 003°48'0 0.0
2014-Oct-17 13:31N 51°13' E 003°48'0 0.0
2014-Oct-17 12:31N 51°13' E 003°48'0 0.0
2014-Oct-17 11:31N 51°13' E 003°48'0 0.0
2014-Oct-17 06:04N 51°13' E 003°48'0 0.0
2014-Oct-17 04:25N 51°13' E 003°48'0 0.0
2014-Oct-17 03:13N 51°13' E 003°48'0 0.0
2014-Oct-17 01:28N 51°13' E 003°48'4 4.0
2014-Oct-17 00:34N 51°17' E 003°50'5 4.7
2014-Oct-16 23:32N 51°21' E 003°47'8 7.8
2014-Oct-16 22:33N 51°25' E 003°37'8 8.4
2014-Oct-16 21:33N 51°31' E 003°27'9 9.3
2014-Oct-16 20:33N 51°39' E 003°20'9 9.0
2014-Oct-16 19:33N 51°46' E 003°11'63 9.0
2014-Oct-16 12:34N 52°32' E 002°01'1110.7
2014-Oct-16 11:33N 52°40' E 001°50'1010.2
2014-Oct-16 10:33N 52°48' E 001°40'10 9.6
2014-Oct-16 09:33N 52°55' E 001°27'9 9.3
2014-Oct-16 08:33N 52°60' E 001°14'42 8.4
2014-Oct-16 03:33N 53°28' E 000°23'8 8.0
2014-Oct-16 02:34N 53°33' E 000°12'9 9.1
2014-Oct-16 01:34N 53°36' W 000°02'1111.5
2014-Oct-16 00:33N 53°44' W 000°17'1010.2
2014-Oct-15 23:34N 53°42' W 000°34'8 7.4
2014-Oct-15 22:29N 53°42' W 000°47'3 2.7
2014-Oct-15 21:23N 53°42' W 000°52'  
2014-Oct-12 19:11N 53°42' W 000°27'6 9.3
2014-Oct-12 18:34N 53°44' W 000°18'9 8.9
2014-Oct-12 17:33N 53°37' W 000°07'8 8.1
2014-Oct-12 16:33N 53°34' E 000°05'7 6.6
2014-Oct-12 15:31N 53°33' E 000°17'4 3.7
2014-Oct-12 14:32N 53°33' E 000°23'4 4.2
2014-Oct-12 13:31N 53°33' E 000°30'7 4.6
2014-Oct-12 12:03N 53°39' E 000°35'157 8.0
2014-Oct-11 16:29N 53°49' E 005°00'9 9.1
2014-Oct-11 15:33N 53°49' E 005°15'9 9.2
2014-Oct-11 14:32N 53°50' E 005°30'9 9.0
2014-Oct-11 13:33N 53°51' E 005°45'63 7.8
2014-Oct-11 05:33N 53°59' E 007°30'9 9.2
2014-Oct-11 04:33N 54°01' E 007°46'9 9.3
2014-Oct-11 03:33N 54°01' E 008°02'10 9.2
2014-Oct-11 02:31N 54°00' E 008°18'9 9.0
2014-Oct-11 01:33N 53°58' E 008°32'7 6.7
2014-Oct-11 00:33N 53°54' E 008°42'6 5.8
2014-Oct-10 23:33N 53°51' E 008°49'6 6.3
2014-Oct-10 22:33N 53°51' E 008°60'6 5.9
2014-Oct-10 21:33N 53°54' E 009°09'5 5.2
2014-Oct-10 20:32N 53°58' E 009°15'16 7.9
2014-Oct-10 18:33N 54°11' E 009°29'8 8.2
2014-Oct-10 17:32N 54°17' E 009°39'8 8.2
2014-Oct-10 16:33N 54°22' E 009°50'8 7.6
2014-Oct-10 15:33N 54°22' E 010°03'4 4.3
2014-Oct-10 14:33N 54°22' E 010°10'8 8.1
2014-Oct-10 13:33N 54°29' E 010°17'  
Track history (hours):
 
Tides and Currents Weather Stations Pressure Air Temp Water Temp Dewpoint Dewpoint Depression Visibility Wind Speed Wind Dir Waves Ship Positions

Iberica Hav

Last reported at 2014-Oct-20 13:32 UTC. Time now 2014-Oct-21 00:42 UTC.
Position N 55°31' E 015°06'.

Length 88 m; draft 3.7 m.

Type: Cargo ship. MMSI: 311034400.

Date/timePositionNaut miles runAvg speedWind from/ knotsBaromVisibWave heightAir tempDewpointWater temp
2014-Oct-20 13:32N 55°31' E 015°06'8 8.4
2014-Oct-20 12:34N 55°27' E 014°53'8 8.3
2014-Oct-20 11:34N 55°23' E 014°41'9 8.8
2014-Oct-20 10:34N 55°16' E 014°30'8 8.5
2014-Oct-20 09:34N 55°10' E 014°20'8 8.1
2014-Oct-20 08:34N 55°04' E 014°10'8 8.4
2014-Oct-20 07:34N 55°00' E 013°58'64 8.8
2014-Oct-20 00:15N 54°34' E 012°16'6 9.2
2014-Oct-19 23:33N 54°31' E 012°06'59 9.6
2014-Oct-19 17:28N 54°30' E 010°25'8 9.1
2014-Oct-19 16:33N 54°26' E 010°13'5 4.6
2014-Oct-19 15:33N 54°22' E 010°09'5 5.5
2014-Oct-19 14:34N 54°21' E 009°59'8 7.8
2014-Oct-19 13:33N 54°21' E 009°46'8 7.8
2014-Oct-19 12:33N 54°15' E 009°37'21 6.3
2014-Oct-19 09:15N 53°58' E 009°16'6 8.3
2014-Oct-19 08:33N 53°54' E 009°09'6 5.5
2014-Oct-19 07:31N 53°51' E 009°01'1010.8
2014-Oct-19 06:34N 53°52' E 008°44'1010.1
2014-Oct-19 05:33N 53°58' E 008°30'1010.5
2014-Oct-19 04:33N 53°59' E 008°12'9 9.5
2014-Oct-19 03:33N 53°57' E 007°57'71 8.3
2014-Oct-18 19:03N 53°39' E 006°01'4 8.8
2014-Oct-18 18:33N 53°38' E 005°54'9 8.9
2014-Oct-18 17:33N 53°35' E 005°39'9 9.0
2014-Oct-18 16:33N 53°33' E 005°25'9 9.3
2014-Oct-18 15:33N 53°30' E 005°10'10 9.9
2014-Oct-18 14:34N 53°26' E 004°55'10 9.7
2014-Oct-18 13:32N 53°20' E 004°41'57 9.4
2014-Oct-18 07:28N 52°31' E 003°55'55 7.6
2014-Oct-18 00:09N 51°40' E 003°20'710.1
2014-Oct-17 23:26N 51°33' E 003°25'910.2
2014-Oct-17 22:33N 51°26' E 003°34'1010.3
2014-Oct-17 21:34N 51°21' E 003°48'3 3.3
2014-Oct-17 20:34N 51°18' E 003°50'5 4.3
2014-Oct-17 19:26N 51°13' E 003°48'0 0.0
2014-Oct-17 13:31N 51°13' E 003°48'0 0.0
2014-Oct-17 12:31N 51°13' E 003°48'0 0.0
2014-Oct-17 11:31N 51°13' E 003°48'0 0.0
2014-Oct-17 06:04N 51°13' E 003°48'0 0.0
2014-Oct-17 04:25N 51°13' E 003°48'0 0.0
2014-Oct-17 03:13N 51°13' E 003°48'0 0.0
2014-Oct-17 01:28N 51°13' E 003°48'4 4.0
2014-Oct-17 00:34N 51°17' E 003°50'5 4.7
2014-Oct-16 23:32N 51°21' E 003°47'8 7.8
2014-Oct-16 22:33N 51°25' E 003°37'8 8.4
2014-Oct-16 21:33N 51°31' E 003°27'9 9.3
2014-Oct-16 20:33N 51°39' E 003°20'9 9.0
2014-Oct-16 19:33N 51°46' E 003°11'63 9.0
2014-Oct-16 12:34N 52°32' E 002°01'1110.7
2014-Oct-16 11:33N 52°40' E 001°50'1010.2
2014-Oct-16 10:33N 52°48' E 001°40'10 9.6
2014-Oct-16 09:33N 52°55' E 001°27'9 9.3
2014-Oct-16 08:33N 52°60' E 001°14'42 8.4
2014-Oct-16 03:33N 53°28' E 000°23'8 8.0
2014-Oct-16 02:34N 53°33' E 000°12'9 9.1
2014-Oct-16 01:34N 53°36' W 000°02'1111.5
2014-Oct-16 00:33N 53°44' W 000°17'1010.2
2014-Oct-15 23:34N 53°42' W 000°34'8 7.4
2014-Oct-15 22:29N 53°42' W 000°47'3 2.7
2014-Oct-15 21:23N 53°42' W 000°52'  
2014-Oct-12 19:11N 53°42' W 000°27'6 9.3
2014-Oct-12 18:34N 53°44' W 000°18'9 8.9
2014-Oct-12 17:33N 53°37' W 000°07'8 8.1
2014-Oct-12 16:33N 53°34' E 000°05'7 6.6
2014-Oct-12 15:31N 53°33' E 000°17'4 3.7
2014-Oct-12 14:32N 53°33' E 000°23'4 4.2
2014-Oct-12 13:31N 53°33' E 000°30'7 4.6
2014-Oct-12 12:03N 53°39' E 000°35'157 8.0
2014-Oct-11 16:29N 53°49' E 005°00'9 9.1
2014-Oct-11 15:33N 53°49' E 005°15'9 9.2
2014-Oct-11 14:32N 53°50' E 005°30'9 9.0
2014-Oct-11 13:33N 53°51' E 005°45'63 7.8
2014-Oct-11 05:33N 53°59' E 007°30'9 9.2
2014-Oct-11 04:33N 54°01' E 007°46'9 9.3
2014-Oct-11 03:33N 54°01' E 008°02'10 9.2
2014-Oct-11 02:31N 54°00' E 008°18'9 9.0
2014-Oct-11 01:33N 53°58' E 008°32'7 6.7
2014-Oct-11 00:33N 53°54' E 008°42'6 5.8
2014-Oct-10 23:33N 53°51' E 008°49'6 6.3
2014-Oct-10 22:33N 53°51' E 008°60'6 5.9
2014-Oct-10 21:33N 53°54' E 009°09'5 5.2
2014-Oct-10 20:32N 53°58' E 009°15'16 7.9
2014-Oct-10 18:33N 54°11' E 009°29'8 8.2
2014-Oct-10 17:32N 54°17' E 009°39'8 8.2
2014-Oct-10 16:33N 54°22' E 009°50'8 7.6
2014-Oct-10 15:33N 54°22' E 010°03'4 4.3
2014-Oct-10 14:33N 54°22' E 010°10'8 8.1
2014-Oct-10 13:33N 54°29' E 010°17'  

Dump ship's entire track history